createdAt,value
2023-06-01T00:00:17.245Z,17.46
2023-06-01T00:03:20.241Z,17.55
2023-06-01T00:06:22.688Z,17.52
2023-06-01T00:09:26.958Z,17.52
2023-06-01T00:12:29.190Z,17.39
2023-06-01T00:15:31.276Z,17.31
2023-06-01T00:18:35.292Z,17.35
2023-06-01T00:21:41.341Z,17.36
2023-06-01T00:24:49.059Z,17.13
2023-06-01T00:27:50.777Z,17.04
2023-06-01T00:30:52.859Z,17.07
2023-06-01T00:33:55.146Z,17.19
2023-06-01T00:36:57.137Z,17.25
2023-06-01T00:40:00.593Z,17.09
2023-06-01T00:43:03.357Z,17.12
2023-06-01T00:46:05.936Z,17.12
2023-06-01T00:49:08.461Z,17.19
2023-06-01T00:52:10.445Z,17.12
2023-06-01T00:55:16.735Z,17.16
2023-06-01T00:58:18.753Z,17.06
2023-06-01T01:01:20.736Z,17.06
2023-06-01T01:04:22.955Z,17.18
2023-06-01T01:07:33.637Z,17.08
2023-06-01T01:10:42.309Z,17.16
2023-06-01T01:13:51.333Z,17.05
2023-06-01T01:17:00.939Z,17.04
2023-06-01T01:20:10.076Z,17.02
2023-06-01T01:23:39.177Z,17.02
2023-06-01T01:26:57.784Z,16.97
2023-06-01T01:30:05.676Z,17.09
2023-06-01T01:33:10.925Z,17.12
2023-06-01T01:36:13.088Z,17.12
2023-06-01T01:39:15.039Z,17.10
2023-06-01T01:42:19.319Z,17.03
2023-06-01T01:45:23.243Z,17.09
2023-06-01T01:48:40.617Z,16.92
2023-06-01T01:51:51.188Z,16.94
2023-06-01T01:54:57.326Z,16.96
2023-06-01T01:58:03.407Z,16.94
2023-06-01T02:01:10.434Z,16.88
2023-06-01T02:04:12.392Z,16.80
2023-06-01T02:07:16.482Z,16.82
2023-06-01T02:10:18.529Z,16.80
2023-06-01T02:13:20.289Z,16.73
2023-06-01T02:16:23.630Z,16.70
2023-06-01T02:19:26.237Z,16.48
2023-06-01T02:22:28.933Z,16.23
2023-06-01T02:25:30.915Z,16.18
2023-06-01T02:28:33.530Z,16.09
2023-06-01T02:31:39.872Z,15.83
2023-06-01T02:34:41.594Z,15.78
2023-06-01T02:37:46.100Z,15.72
2023-06-01T02:40:48.532Z,15.07
2023-06-01T02:43:53.353Z,14.68
2023-06-01T02:46:59.727Z,14.43
2023-06-01T02:50:01.665Z,14.76
2023-06-01T02:53:04.481Z,14.72
2023-06-01T02:56:06.725Z,14.83
2023-06-01T02:59:08.451Z,14.69
2023-06-01T03:02:11.991Z,14.73
2023-06-01T03:05:17.175Z,14.89
2023-06-01T03:08:19.323Z,15.06
2023-06-01T03:11:23.315Z,15.14
2023-06-01T03:14:27.028Z,15.29
2023-06-01T03:17:33.726Z,15.37
2023-06-01T03:20:36.003Z,15.29
2023-06-01T03:23:38.511Z,15.37
2023-06-01T03:26:40.476Z,15.16
2023-06-01T03:29:42.449Z,14.80
2023-06-01T03:32:53.626Z,14.74
2023-06-01T03:35:56.869Z,14.70
2023-06-01T03:39:00.351Z,14.61
2023-06-01T03:42:02.429Z,14.50
2023-06-01T03:45:07.884Z,14.57
2023-06-01T03:48:13.556Z,14.82
2023-06-01T03:51:15.566Z,15.02
2023-06-01T03:54:17.956Z,15.10
2023-06-01T03:57:19.717Z,15.06
2023-06-01T04:00:21.928Z,14.86
2023-06-01T04:03:28.594Z,14.53
2023-06-01T04:06:30.339Z,14.28
2023-06-01T04:09:32.776Z,13.85
2023-06-01T04:12:37.030Z,13.80
2023-06-01T04:15:39.551Z,13.12
2023-06-01T04:18:45.432Z,12.98
2023-06-01T04:21:47.561Z,13.17
2023-06-01T04:24:51.511Z,13.41
2023-06-01T04:27:56.001Z,13.63
2023-06-01T04:30:58.179Z,13.87
2023-06-01T04:34:02.006Z,14.06
2023-06-01T04:37:06.858Z,14.21
2023-06-01T04:40:10.243Z,14.40
2023-06-01T04:43:12.219Z,14.56
2023-06-01T04:46:16.339Z,14.75
2023-06-01T04:49:20.174Z,14.91
2023-06-01T04:52:21.911Z,14.99
2023-06-01T04:55:24.679Z,14.86
2023-06-01T04:58:26.673Z,14.91
2023-06-01T05:01:28.682Z,14.91
2023-06-01T05:04:31.844Z,14.99
2023-06-01T05:07:33.936Z,15.01
2023-06-01T05:10:39.361Z,14.95
2023-06-01T05:13:41.972Z,15.03
2023-06-01T05:16:46.101Z,15.11
2023-06-01T05:19:51.358Z,15.23
2023-06-01T05:22:53.372Z,15.33
2023-06-01T05:25:55.410Z,15.41
2023-06-01T05:28:57.630Z,15.50
2023-06-01T05:32:02.062Z,15.61
2023-06-01T05:35:06.355Z,15.64
2023-06-01T05:38:08.190Z,15.64
2023-06-01T05:41:10.182Z,15.68
2023-06-01T05:44:12.596Z,15.63
2023-06-01T05:47:15.000Z,15.70
2023-06-01T05:50:20.503Z,15.76
2023-06-01T05:53:23.630Z,15.68
2023-06-01T05:56:28.306Z,15.75
2023-06-01T05:59:30.234Z,15.80
2023-06-01T06:02:32.146Z,15.85
2023-06-01T06:05:38.175Z,15.84
2023-06-01T06:08:42.505Z,15.84
2023-06-01T06:11:44.483Z,15.79
2023-06-01T06:14:49.219Z,15.97
2023-06-01T06:17:51.210Z,16.02
2023-06-01T06:20:54.580Z,16.06
2023-06-01T06:23:56.355Z,15.99
2023-06-01T06:26:58.586Z,15.98
2023-06-01T06:30:00.538Z,16.02
2023-06-01T06:33:04.605Z,16.15
2023-06-01T06:36:10.552Z,16.21
2023-06-01T06:39:12.825Z,16.18
2023-06-01T06:42:15.113Z,16.22
2023-06-01T06:45:17.380Z,16.29
2023-06-01T06:48:19.125Z,16.35
2023-06-01T06:51:24.892Z,16.45
2023-06-01T06:54:29.170Z,16.48
2023-06-01T06:57:31.857Z,16.63
2023-06-01T07:00:33.682Z,16.78
2023-06-01T07:03:35.901Z,16.77
2023-06-01T07:06:42.804Z,16.78
2023-06-01T07:09:44.582Z,16.89
2023-06-01T07:12:46.541Z,16.92
2023-06-01T07:15:48.300Z,16.92
2023-06-01T07:18:50.389Z,17.03
2023-06-01T07:21:58.116Z,17.07
2023-06-01T07:25:01.085Z,17.09
2023-06-01T07:28:04.222Z,17.18
2023-06-01T07:31:08.722Z,17.27
2023-06-01T07:34:11.899Z,17.39
2023-06-01T07:37:26.798Z,17.48
2023-06-01T07:40:28.888Z,17.58
2023-06-01T07:43:34.809Z,17.67
2023-06-01T07:46:36.650Z,17.74
2023-06-01T07:49:39.826Z,17.67
2023-06-01T07:52:43.163Z,17.67
2023-06-01T07:55:45.186Z,17.78
2023-06-01T07:58:47.174Z,17.88
2023-06-01T08:01:51.131Z,17.92
2023-06-01T08:04:55.437Z,17.99
2023-06-01T08:08:03.390Z,18.17
2023-06-01T08:11:05.172Z,18.09
2023-06-01T08:14:09.973Z,18.20
2023-06-01T08:17:12.178Z,18.27
2023-06-01T08:20:14.594Z,18.32
2023-06-01T08:23:18.270Z,18.52
2023-06-01T08:26:20.821Z,18.67
2023-06-01T08:29:34.727Z,18.61
2023-06-01T08:32:44.659Z,18.73
2023-06-01T08:35:47.737Z,18.73
2023-06-01T08:38:51.853Z,18.77
2023-06-01T08:42:04.821Z,18.73
2023-06-01T08:45:07.559Z,18.84
2023-06-01T08:48:12.141Z,18.87
2023-06-01T08:51:14.971Z,18.92
2023-06-01T08:54:18.476Z,18.98
2023-06-01T08:57:23.064Z,19.22
2023-06-01T09:00:25.354Z,19.31
2023-06-01T09:03:28.139Z,19.29
2023-06-01T09:06:32.091Z,19.45
2023-06-01T09:09:38.020Z,19.44
2023-06-01T09:12:55.810Z,19.41
2023-06-01T09:15:57.840Z,19.47
2023-06-01T09:19:02.828Z,19.49
2023-06-01T09:22:05.382Z,19.64
2023-06-01T09:25:09.130Z,19.63
2023-06-01T09:28:13.577Z,19.68
2023-06-01T09:31:38.757Z,19.65
2023-06-01T09:34:45.575Z,19.72
2023-06-01T09:37:57.448Z,19.85
2023-06-01T09:41:04.856Z,20.06
2023-06-01T09:44:06.750Z,20.19
2023-06-01T09:47:11.889Z,20.24
2023-06-01T09:50:33.621Z,20.28
2023-06-01T09:53:45.351Z,20.39
2023-06-01T09:56:49.937Z,20.55
2023-06-01T09:59:52.232Z,20.65
2023-06-01T10:02:55.703Z,20.70
2023-06-01T10:05:58.792Z,20.48
2023-06-01T10:09:01.375Z,20.58
2023-06-01T10:12:06.564Z,20.64
2023-06-01T10:15:25.694Z,20.75
2023-06-01T10:18:35.496Z,20.79
2023-06-01T10:21:37.964Z,20.93
2023-06-01T10:24:43.408Z,21.00
2023-06-01T10:27:56.594Z,21.11
2023-06-01T10:31:40.352Z,21.34
2023-06-01T10:34:46.617Z,21.38
2023-06-01T10:38:22.035Z,21.44
2023-06-01T10:41:31.789Z,21.39
2023-06-01T10:44:50.317Z,21.76
2023-06-01T10:47:54.526Z,21.68
2023-06-01T10:51:20.882Z,21.61
2023-06-01T10:54:31.238Z,21.90
2023-06-01T10:57:36.708Z,22.23
2023-06-01T11:00:42.336Z,22.09
2023-06-01T11:03:45.118Z,21.98
2023-06-01T11:06:47.002Z,21.94
2023-06-01T11:09:48.811Z,22.04
2023-06-01T11:13:12.923Z,22.15
2023-06-01T11:16:34.528Z,22.24
2023-06-01T11:19:36.946Z,22.43
2023-06-01T11:22:39.210Z,22.42
2023-06-01T11:25:43.592Z,22.33
2023-06-01T11:28:46.373Z,22.46
2023-06-01T11:31:53.339Z,22.62
2023-06-01T11:34:55.748Z,22.62
2023-06-01T11:37:59.593Z,22.72
2023-06-01T11:41:02.124Z,22.67
2023-06-01T11:44:04.063Z,22.92
2023-06-01T11:47:08.592Z,22.94
2023-06-01T11:50:21.847Z,23.08
2023-06-01T11:53:25.085Z,23.23
2023-06-01T11:56:31.351Z,23.13
2023-06-01T11:59:38.334Z,23.14
2023-06-01T12:02:41.738Z,23.22
2023-06-01T12:05:44.101Z,23.31
2023-06-01T12:08:46.151Z,23.29
2023-06-01T12:11:49.436Z,23.29
2023-06-01T12:14:52.608Z,23.19
2023-06-01T12:17:59.924Z,23.11
2023-06-01T12:21:10.020Z,23.48
2023-06-01T12:24:13.290Z,23.54
2023-06-01T12:27:16.353Z,23.42
2023-06-01T12:30:21.752Z,23.64
2023-06-01T12:33:35.453Z,23.68
2023-06-01T12:36:38.506Z,23.67
2023-06-01T12:39:42.468Z,23.84
2023-06-01T12:42:46.924Z,23.93
2023-06-01T12:45:48.770Z,23.86
2023-06-01T12:48:53.225Z,23.86
2023-06-01T12:51:55.555Z,23.83
2023-06-01T12:54:59.703Z,23.93
2023-06-01T12:58:01.955Z,24.12
2023-06-01T13:01:05.011Z,24.19
2023-06-01T13:04:09.078Z,24.17
2023-06-01T13:07:10.935Z,24.11
2023-06-01T13:10:13.303Z,24.03
2023-06-01T13:13:15.534Z,23.96
2023-06-01T13:16:17.983Z,23.93
2023-06-01T13:19:27.285Z,24.04
2023-06-01T13:22:31.836Z,24.33
2023-06-01T13:25:35.936Z,24.38
2023-06-01T13:28:37.737Z,24.57
2023-06-01T13:31:42.634Z,24.72
2023-06-01T13:34:48.165Z,24.85
2023-06-01T13:37:50.029Z,24.82
2023-06-01T13:40:51.887Z,24.87
2023-06-01T13:43:54.155Z,24.86
2023-06-01T13:46:56.684Z,24.69
2023-06-01T13:50:00.470Z,24.69
2023-06-01T13:53:02.244Z,24.69
2023-06-01T13:56:06.189Z,24.61
2023-06-01T13:59:10.439Z,24.61
2023-06-01T14:02:12.488Z,24.61
2023-06-01T14:05:20.098Z,24.51
2023-06-01T14:08:30.111Z,24.57
2023-06-01T14:11:33.016Z,24.55
2023-06-01T14:14:37.765Z,24.56
2023-06-01T14:17:42.336Z,24.44
2023-06-01T14:20:48.144Z,24.47
2023-06-01T14:23:51.501Z,24.42
2023-06-01T14:26:53.341Z,24.47
2023-06-01T14:29:56.286Z,24.49
2023-06-01T14:33:00.474Z,24.38
2023-06-01T14:36:04.167Z,24.32
2023-06-01T14:39:06.318Z,24.43
2023-06-01T14:42:08.554Z,24.60
2023-06-01T14:45:11.219Z,24.63
2023-06-01T14:48:12.992Z,24.68
2023-06-01T14:51:16.333Z,24.58
2023-06-01T14:54:30.498Z,24.62
2023-06-01T14:57:40.968Z,24.59
2023-06-01T15:00:43.132Z,24.72
2023-06-01T15:03:47.363Z,24.55
2023-06-01T15:06:50.956Z,24.47
2023-06-01T15:09:53.326Z,24.55
2023-06-01T15:12:56.666Z,24.62
2023-06-01T15:15:59.011Z,24.43
2023-06-01T15:19:00.759Z,24.93
2023-06-01T15:22:05.694Z,24.68
2023-06-01T15:25:11.511Z,24.77
2023-06-01T15:28:13.625Z,24.77
2023-06-01T15:31:15.692Z,25.23
2023-06-01T15:34:17.736Z,25.13
2023-06-01T15:37:21.900Z,25.34
2023-06-01T15:40:24.278Z,25.20
2023-06-01T15:43:27.599Z,25.05
2023-06-01T15:46:29.903Z,25.18
2023-06-01T15:49:33.060Z,25.18
2023-06-01T15:52:38.508Z,25.29
2023-06-01T15:55:40.577Z,25.36
2023-06-01T15:58:44.852Z,25.20
2023-06-01T16:01:46.918Z,25.39
2023-06-01T16:04:48.951Z,25.45
2023-06-01T16:07:52.697Z,25.64
2023-06-01T16:10:54.643Z,25.69
2023-06-01T16:13:56.580Z,25.69
2023-06-01T16:17:02.935Z,25.72
2023-06-01T16:20:07.085Z,25.86
2023-06-01T16:23:10.638Z,26.04
2023-06-01T16:26:12.925Z,26.27
2023-06-01T16:29:14.932Z,26.63
2023-06-01T16:32:17.214Z,27.14
2023-06-01T16:35:19.298Z,27.56
2023-06-01T16:38:30.029Z,27.66
2023-06-01T16:41:39.563Z,27.63
2023-06-01T16:44:41.891Z,27.22
2023-06-01T16:47:43.891Z,27.22
2023-06-01T16:50:46.928Z,26.77
2023-06-01T16:53:53.344Z,26.37
2023-06-01T16:56:55.110Z,26.07
2023-06-01T16:59:58.315Z,26.38
2023-06-01T17:03:02.735Z,25.88
2023-06-01T17:06:08.983Z,25.77
2023-06-01T17:09:13.979Z,25.40
2023-06-01T17:12:16.068Z,25.23
2023-06-01T17:15:19.003Z,25.08
2023-06-01T17:18:22.279Z,24.90
2023-06-01T17:21:24.756Z,24.74
2023-06-01T17:24:30.437Z,24.71
2023-06-01T17:27:32.290Z,24.70
2023-06-01T17:30:34.516Z,24.67
2023-06-01T17:33:36.672Z,24.84
2023-06-01T17:36:41.444Z,24.92
2023-06-01T17:39:44.623Z,24.79
2023-06-01T17:42:46.644Z,24.87
2023-06-01T17:45:48.666Z,24.78
2023-06-01T17:48:53.078Z,24.61
2023-06-01T17:51:57.441Z,24.52
2023-06-01T17:55:00.759Z,24.38
2023-06-01T17:58:02.936Z,24.26
2023-06-01T18:01:06.785Z,24.20
2023-06-01T18:04:09.944Z,23.93
2023-06-01T18:07:12.035Z,23.94
2023-06-01T18:10:16.629Z,23.74
2023-06-01T18:13:18.535Z,23.85
2023-06-01T18:16:21.578Z,23.72
2023-06-01T18:19:23.771Z,23.40
2023-06-01T18:22:25.992Z,23.28
2023-06-01T18:25:30.828Z,22.85
2023-06-01T18:28:33.623Z,22.59
2023-06-01T18:31:36.081Z,22.04
2023-06-01T18:34:38.614Z,21.87
2023-06-01T18:37:41.588Z,21.89
2023-06-01T18:40:47.333Z,21.60
2023-06-01T18:43:50.022Z,21.64
2023-06-01T18:46:52.259Z,21.61
2023-06-01T18:49:54.946Z,21.37
2023-06-01T18:52:57.211Z,21.39
2023-06-01T18:56:01.117Z,20.81
2023-06-01T18:59:05.615Z,20.52
2023-06-01T19:02:10.237Z,20.53
2023-06-01T19:05:12.528Z,20.42
2023-06-01T19:08:22.313Z,20.49
2023-06-01T19:11:28.567Z,20.34
2023-06-01T19:14:30.935Z,19.98
2023-06-01T19:17:35.565Z,19.73
2023-06-01T19:21:07.022Z,19.72
2023-06-01T19:24:10.856Z,19.61
2023-06-01T19:27:15.687Z,19.52
2023-06-01T19:30:18.284Z,19.54
2023-06-01T19:33:21.872Z,19.34
2023-06-01T19:36:50.769Z,19.24
2023-06-01T19:39:54.824Z,19.22
2023-06-01T19:42:58.782Z,18.95
2023-06-01T19:46:08.382Z,18.71
2023-06-01T19:49:15.761Z,18.57
2023-06-01T19:52:38.496Z,18.36
2023-06-01T19:55:43.226Z,18.01
2023-06-01T19:58:49.392Z,17.80
2023-06-01T20:01:52.422Z,17.94
2023-06-01T20:04:57.388Z,17.81
2023-06-01T20:08:02.541Z,17.89
2023-06-01T20:11:05.551Z,18.08
2023-06-01T20:14:14.405Z,18.11
2023-06-01T20:17:16.997Z,18.15
2023-06-01T20:20:19.791Z,17.99
2023-06-01T20:23:24.164Z,18.01
2023-06-01T20:26:26.673Z,18.08
2023-06-01T20:29:42.350Z,17.92
2023-06-01T20:32:45.232Z,17.83
2023-06-01T20:35:47.425Z,17.72
2023-06-01T20:38:49.629Z,17.67
2023-06-01T20:41:52.666Z,17.67
2023-06-01T20:44:56.433Z,17.69
2023-06-01T20:47:58.564Z,17.18
2023-06-01T20:51:03.955Z,17.08
2023-06-01T20:54:08.258Z,17.30
2023-06-01T20:57:11.894Z,17.23
2023-06-01T21:00:16.449Z,17.07
2023-06-01T21:03:18.628Z,16.92
2023-06-01T21:06:20.711Z,16.83
2023-06-01T21:09:23.485Z,16.78
2023-06-01T21:12:26.260Z,16.81
2023-06-01T21:15:30.816Z,16.81
2023-06-01T21:18:32.869Z,17.19
2023-06-01T21:21:35.832Z,17.28
2023-06-01T21:24:38.176Z,17.48
2023-06-01T21:27:40.205Z,17.76
2023-06-01T21:30:43.866Z,17.94
2023-06-01T21:33:47.322Z,18.08
2023-06-01T21:36:49.500Z,18.18
2023-06-01T21:39:51.660Z,18.27
2023-06-01T21:43:07.709Z,18.36
2023-06-01T21:46:12.410Z,18.39
2023-06-01T21:49:14.414Z,18.33
2023-06-01T21:52:16.490Z,18.38
2023-06-01T21:55:18.559Z,18.30
2023-06-01T21:58:22.330Z,18.23
2023-06-01T22:01:26.179Z,18.29
2023-06-01T22:04:28.085Z,18.18
2023-06-01T22:07:30.511Z,18.10
2023-06-01T22:10:32.557Z,17.58
2023-06-01T22:13:34.763Z,17.24
2023-06-01T22:16:38.311Z,17.22
2023-06-01T22:19:40.477Z,17.28
2023-06-01T22:22:44.028Z,17.28
2023-06-01T22:25:46.151Z,17.37
2023-06-01T22:28:48.226Z,17.37
2023-06-01T22:31:52.434Z,16.78
2023-06-01T22:34:54.854Z,16.49
2023-06-01T22:37:57.707Z,16.40
2023-06-01T22:41:01.062Z,16.34
2023-06-01T22:44:04.251Z,16.36
2023-06-01T22:47:08.213Z,16.66
2023-06-01T22:50:11.225Z,16.88
2023-06-01T22:53:13.054Z,17.05
2023-06-01T22:56:15.136Z,16.88
2023-06-01T22:59:17.427Z,17.02
2023-06-01T23:02:33.543Z,17.10
2023-06-01T23:05:35.715Z,16.82
2023-06-01T23:08:37.692Z,16.85
2023-06-01T23:11:39.494Z,16.41
2023-06-01T23:14:42.168Z,16.20
2023-06-01T23:17:46.353Z,15.83
2023-06-01T23:20:49.030Z,15.79
2023-06-01T23:23:50.879Z,15.49
2023-06-01T23:26:53.132Z,15.60
2023-06-01T23:29:54.982Z,15.56
2023-06-01T23:32:58.692Z,15.40
2023-06-01T23:36:00.733Z,15.38
2023-06-01T23:39:05.845Z,15.74
2023-06-01T23:42:11.146Z,16.06
2023-06-01T23:45:19.021Z,16.10
2023-06-01T23:48:26.112Z,16.29
2023-06-01T23:51:29.414Z,16.40
2023-06-01T23:54:31.473Z,16.19
2023-06-01T23:57:33.597Z,16.00
